createdAt,value
2022-10-06T00:00:13.260Z,99119.13
2022-10-06T00:02:40.220Z,99133.84
2022-10-06T00:05:07.461Z,99134.06
2022-10-06T00:07:35.341Z,99127.81
2022-10-06T00:10:02.377Z,99128.03
2022-10-06T00:12:29.322Z,99133.50
2022-10-06T00:14:56.278Z,99136.22
2022-10-06T00:17:23.238Z,99138.13
2022-10-06T00:19:50.220Z,99140.66
2022-10-06T00:22:17.159Z,99136.81
2022-10-06T00:24:44.131Z,99133.00
2022-10-06T00:27:11.039Z,99136.59
2022-10-06T00:29:37.979Z,99136.81
2022-10-06T00:32:04.900Z,99134.34
2022-10-06T00:34:31.855Z,99142.53
2022-10-06T00:36:58.892Z,99141.09
2022-10-06T00:39:25.966Z,99128.50
2022-10-06T00:41:52.857Z,99133.13
2022-10-06T00:44:19.818Z,99134.41
2022-10-06T00:46:48.829Z,99143.69
2022-10-06T00:49:22.443Z,99151.09
2022-10-06T00:51:55.352Z,99149.63
2022-10-06T00:54:22.263Z,99145.22
2022-10-06T00:56:49.291Z,99150.69
2022-10-06T00:59:18.488Z,99150.69
2022-10-06T01:02:00.955Z,99146.91
2022-10-06T01:04:30.042Z,99151.31
2022-10-06T01:06:57.326Z,99147.50
2022-10-06T01:09:41.357Z,99149.16
2022-10-06T01:12:25.400Z,99154.19
2022-10-06T01:15:07.962Z,99150.00
2022-10-06T01:18:23.495Z,99154.63
2022-10-06T01:21:47.930Z,99150.25
2022-10-06T01:24:34.371Z,99143.09
2022-10-06T01:27:01.336Z,99155.09
2022-10-06T01:29:28.262Z,99150.69
2022-10-06T01:31:55.199Z,99153.44
2022-10-06T01:34:22.171Z,99154.53
2022-10-06T01:36:49.126Z,99144.66
2022-10-06T01:39:16.085Z,99144.88
2022-10-06T01:41:43.046Z,99150.56
2022-10-06T01:44:10.162Z,99150.81
2022-10-06T01:46:37.171Z,99148.91
2022-10-06T01:49:04.102Z,99151.66
2022-10-06T01:51:31.056Z,99145.94
2022-10-06T01:53:58.033Z,99145.09
2022-10-06T01:56:24.980Z,99147.59
2022-10-06T01:58:51.862Z,99151.78
2022-10-06T02:01:18.837Z,99152.00
2022-10-06T02:03:45.816Z,99145.72
2022-10-06T02:06:12.820Z,99149.50
2022-10-06T02:08:39.798Z,99147.59
2022-10-06T02:11:09.265Z,99150.56
2022-10-06T02:13:37.502Z,99154.38
2022-10-06T02:16:06.931Z,99150.81
2022-10-06T02:18:34.475Z,99164.50
2022-10-06T02:21:02.026Z,99161.75
2022-10-06T02:23:30.184Z,99152.09
2022-10-06T02:26:01.219Z,99151.25
2022-10-06T02:28:28.585Z,99163.28
2022-10-06T02:30:59.877Z,99160.13
2022-10-06T02:33:26.792Z,99155.75
2022-10-06T02:35:56.962Z,99160.97
2022-10-06T02:38:24.247Z,99159.06
2022-10-06T02:40:51.803Z,99167.09
2022-10-06T02:43:18.841Z,99161.41
2022-10-06T02:45:53.806Z,99166.84
2022-10-06T02:48:20.832Z,99158.66
2022-10-06T02:50:54.889Z,99157.81
2022-10-06T02:53:21.867Z,99158.66
2022-10-06T02:55:48.843Z,99158.88
2022-10-06T02:58:15.777Z,99166.25
2022-10-06T03:00:42.803Z,99159.91
2022-10-06T03:03:09.776Z,99164.53
2022-10-06T03:05:36.677Z,99174.63
2022-10-06T03:08:03.623Z,99164.78
2022-10-06T03:10:30.575Z,99173.22
2022-10-06T03:12:57.509Z,99164.41
2022-10-06T03:15:24.441Z,99167.13
2022-10-06T03:17:52.657Z,99172.22
2022-10-06T03:20:19.592Z,99175.19
2022-10-06T03:22:46.532Z,99171.41
2022-10-06T03:25:13.473Z,99171.41
2022-10-06T03:27:40.396Z,99173.91
2022-10-06T03:30:08.105Z,99172.00
2022-10-06T03:32:35.674Z,99178.06
2022-10-06T03:35:02.637Z,99179.75
2022-10-06T03:37:29.666Z,99163.34
2022-10-06T03:39:56.583Z,99171.31
2022-10-06T03:42:23.568Z,99171.53
2022-10-06T03:44:50.532Z,99175.13
2022-10-06T03:47:17.767Z,99174.06
2022-10-06T03:49:44.842Z,99171.53
2022-10-06T03:52:11.867Z,99175.34
2022-10-06T03:54:38.815Z,99177.22
2022-10-06T03:57:05.694Z,99172.00
2022-10-06T03:59:34.484Z,99174.13
2022-10-06T04:02:01.502Z,99182.34
2022-10-06T04:04:28.869Z,99180.66
2022-10-06T04:06:55.869Z,99185.53
2022-10-06T04:09:22.941Z,99182.81
2022-10-06T04:11:49.890Z,99191.00
2022-10-06T04:14:16.888Z,99189.94
2022-10-06T04:16:47.974Z,99191.59
2022-10-06T04:19:15.442Z,99182.59
2022-10-06T04:21:43.700Z,99188.28
2022-10-06T04:24:11.341Z,99195.84
2022-10-06T04:26:45.257Z,99191.22
2022-10-06T04:29:12.935Z,99196.47
2022-10-06T04:31:41.170Z,99193.28
2022-10-06T04:34:09.272Z,99202.53
2022-10-06T04:36:39.830Z,99200.88
2022-10-06T04:39:07.412Z,99206.34
2022-10-06T04:41:35.898Z,99205.75
2022-10-06T04:44:03.255Z,99207.41
2022-10-06T04:46:42.574Z,99200.50
2022-10-06T04:49:13.549Z,99204.31
2022-10-06T04:51:44.775Z,99201.78
2022-10-06T04:54:11.704Z,99220.34
2022-10-06T04:56:38.682Z,99223.88
2022-10-06T04:59:05.621Z,99219.25
2022-10-06T05:01:36.667Z,99215.47
2022-10-06T05:04:04.479Z,99229.50
2022-10-06T05:06:32.083Z,99228.22
2022-10-06T05:09:06.390Z,99229.66
2022-10-06T05:11:33.671Z,99222.28
2022-10-06T05:14:00.680Z,99222.50
2022-10-06T05:16:28.950Z,99222.75
2022-10-06T05:18:56.065Z,99232.84
2022-10-06T05:21:24.561Z,99230.97
2022-10-06T05:23:51.548Z,99233.69
2022-10-06T05:26:27.217Z,99236.44
2022-10-06T05:28:54.125Z,99239.16
2022-10-06T05:31:27.085Z,99240.22
2022-10-06T05:33:54.691Z,99237.72
2022-10-06T05:36:25.796Z,99232.25
2022-10-06T05:38:52.985Z,99238.31
2022-10-06T05:41:21.322Z,99240.00
2022-10-06T05:43:48.507Z,99246.28
2022-10-06T05:46:20.632Z,99244.16
2022-10-06T05:48:48.334Z,99253.00
2022-10-06T05:51:15.339Z,99251.91
2022-10-06T05:53:42.495Z,99259.88
2022-10-06T05:56:17.447Z,99268.09
2022-10-06T05:58:45.710Z,99268.91
2022-10-06T06:01:32.853Z,99278.81
2022-10-06T06:04:04.232Z,99283.19
2022-10-06T06:06:35.912Z,99298.34
2022-10-06T06:09:07.781Z,99304.66
2022-10-06T06:11:36.338Z,99307.97
2022-10-06T06:14:13.306Z,99310.72
2022-10-06T06:16:40.806Z,99314.28
2022-10-06T06:19:08.899Z,99307.97
2022-10-06T06:21:36.028Z,99318.91
2022-10-06T06:24:03.324Z,99320.59
2022-10-06T06:26:31.637Z,99327.75
2022-10-06T06:29:02.855Z,99322.28
2022-10-06T06:31:36.631Z,99326.69
2022-10-06T06:34:05.207Z,99333.00
2022-10-06T06:36:42.269Z,99331.06
2022-10-06T06:39:13.525Z,99332.75
2022-10-06T06:41:46.312Z,99336.09
2022-10-06T06:44:14.198Z,99341.56
2022-10-06T06:46:43.497Z,99354.19
2022-10-06T06:49:12.296Z,99359.66
2022-10-06T06:51:40.894Z,99354.19
2022-10-06T06:54:08.257Z,99355.00
2022-10-06T06:56:35.507Z,99354.19
2022-10-06T06:59:03.672Z,99353.09
2022-10-06T07:01:30.879Z,99364.88
2022-10-06T07:03:59.398Z,99362.16
2022-10-06T07:06:28.919Z,99359.41
2022-10-06T07:08:59.456Z,99367.63
2022-10-06T07:11:35.987Z,99368.47
2022-10-06T07:14:06.120Z,99379.41
2022-10-06T07:16:52.008Z,99376.66
2022-10-06T07:19:37.986Z,99368.47
2022-10-06T07:22:35.167Z,99372.88
2022-10-06T07:25:08.343Z,99378.34
2022-10-06T07:27:36.086Z,99381.91
2022-10-06T07:30:04.943Z,99383.59
2022-10-06T07:32:31.953Z,99382.75
2022-10-06T07:35:03.364Z,99384.41
2022-10-06T07:37:30.308Z,99391.81
2022-10-06T07:39:57.252Z,99389.88
2022-10-06T07:42:24.172Z,99389.88
2022-10-06T07:45:09.576Z,99396.19
2022-10-06T07:47:39.696Z,99404.19
2022-10-06T07:50:07.703Z,99401.66
2022-10-06T07:52:36.675Z,99404.19
2022-10-06T07:55:03.838Z,99406.69
2022-10-06T07:57:34.957Z,99411.31
2022-10-06T08:00:05.547Z,99417.63
2022-10-06T08:02:35.608Z,99411.31
2022-10-06T08:05:04.341Z,99414.91
2022-10-06T08:07:31.610Z,99423.09
2022-10-06T08:09:58.639Z,99428.59
2022-10-06T08:12:34.470Z,99431.91
2022-10-06T08:15:07.037Z,99428.34
2022-10-06T08:17:35.732Z,99433.81
2022-10-06T08:20:02.866Z,99438.22
2022-10-06T08:22:30.374Z,99449.16
2022-10-06T08:25:05.801Z,99450.00
2022-10-06T08:27:35.180Z,99453.56
2022-10-06T08:30:02.431Z,99446.44
2022-10-06T08:32:29.401Z,99456.31
2022-10-06T08:34:56.945Z,99452.75
2022-10-06T08:37:24.778Z,99453.56
2022-10-06T08:39:51.970Z,99448.09
2022-10-06T08:42:26.537Z,99452.53
2022-10-06T08:45:01.759Z,99458.00
2022-10-06T08:47:30.558Z,99462.63
2022-10-06T08:49:57.844Z,99469.78
2022-10-06T08:52:42.697Z,99471.69
2022-10-06T08:55:34.087Z,99471.44
2022-10-06T08:58:04.824Z,99470.59
2022-10-06T09:00:33.608Z,99472.28
2022-10-06T09:03:01.162Z,99477.75
2022-10-06T09:05:30.010Z,99472.28
2022-10-06T09:08:15.292Z,99466.78
2022-10-06T09:11:04.998Z,99469.31
2022-10-06T09:13:40.162Z,99473.09
2022-10-06T09:16:08.291Z,99461.31
2022-10-06T09:19:03.324Z,99463.84
2022-10-06T09:21:30.824Z,99461.31
2022-10-06T09:24:02.680Z,99468.47
2022-10-06T09:26:33.411Z,99469.31
2022-10-06T09:29:00.403Z,99458.38
2022-10-06T09:31:43.880Z,99463.00
2022-10-06T09:34:35.878Z,99468.47
2022-10-06T09:37:05.256Z,99472.06
2022-10-06T09:39:45.150Z,99486.56
2022-10-06T09:42:12.025Z,99480.25
2022-10-06T09:44:56.486Z,99492.03
2022-10-06T09:47:29.392Z,99494.78
2022-10-06T09:50:24.126Z,99499.19
2022-10-06T09:53:05.811Z,99497.28
2022-10-06T09:55:38.789Z,99500.84
2022-10-06T09:58:38.046Z,99504.66
2022-10-06T10:01:09.281Z,99508.00
2022-10-06T10:04:01.843Z,99509.69
2022-10-06T10:06:35.237Z,99513.47
2022-10-06T10:09:20.608Z,99503.38
2022-10-06T10:12:28.271Z,99509.69
2022-10-06T10:14:57.664Z,99504.22
2022-10-06T10:17:32.674Z,99509.69
2022-10-06T10:20:01.099Z,99509.69
2022-10-06T10:22:37.996Z,99501.47
2022-10-06T10:25:20.528Z,99498.72
2022-10-06T10:28:03.928Z,99502.06
2022-10-06T10:30:37.149Z,99498.72
2022-10-06T10:33:09.774Z,99496.59
2022-10-06T10:35:39.044Z,99497.44
2022-10-06T10:38:27.221Z,99491.13
2022-10-06T10:41:04.915Z,99510.06
2022-10-06T10:43:36.331Z,99503.75
2022-10-06T10:46:13.438Z,99512.56
2022-10-06T10:48:42.670Z,99510.91
2022-10-06T10:51:26.498Z,99510.69
2022-10-06T10:54:02.923Z,99516.97
2022-10-06T10:56:29.846Z,99515.31
2022-10-06T10:59:21.620Z,99519.69
2022-10-06T11:01:51.625Z,99521.38
2022-10-06T11:04:18.607Z,99524.13
2022-10-06T11:06:54.839Z,99525.16
2022-10-06T11:09:43.604Z,99529.59
2022-10-06T11:12:19.489Z,99520.53
2022-10-06T11:14:54.016Z,99529.59
2022-10-06T11:17:44.651Z,99525.16
2022-10-06T11:20:18.107Z,99526.84
2022-10-06T11:22:54.391Z,99525.16
2022-10-06T11:25:47.437Z,99523.06
2022-10-06T11:28:36.371Z,99530.44
2022-10-06T11:31:22.730Z,99537.59
2022-10-06T11:33:54.592Z,99536.53
2022-10-06T11:36:47.350Z,99525.34
2022-10-06T11:39:21.820Z,99538.19
2022-10-06T11:42:12.109Z,99543.66
2022-10-06T11:44:44.786Z,99538.19
2022-10-06T11:47:28.110Z,99533.53
2022-10-06T11:50:01.444Z,99535.22
2022-10-06T11:52:28.604Z,99536.91
2022-10-06T11:54:56.715Z,99543.22
2022-10-06T11:57:29.300Z,99540.69
2022-10-06T12:00:16.566Z,99539.66
2022-10-06T12:02:45.115Z,99536.06
2022-10-06T12:08:08.976Z,99536.91
2022-10-06T12:10:35.946Z,99544.06
2022-10-06T12:14:01.561Z,99540.22
2022-10-06T12:19:23.838Z,99535.59
2022-10-06T12:22:15.337Z,99538.13
2022-10-06T12:25:02.991Z,99536.81
2022-10-06T12:27:42.104Z,99539.34
2022-10-06T12:30:24.967Z,99538.28
2022-10-06T12:32:53.553Z,99550.91
2022-10-06T12:35:40.240Z,99538.88
2022-10-06T12:38:41.545Z,99538.88
2022-10-06T12:41:12.984Z,99541.63
2022-10-06T12:43:57.462Z,99547.72
2022-10-06T12:46:33.406Z,99541.41
2022-10-06T12:49:06.041Z,99541.19
2022-10-06T12:51:40.382Z,99546.66
2022-10-06T12:54:28.313Z,99550.22
2022-10-06T12:57:21.737Z,99555.47
2022-10-06T12:59:49.787Z,99547.25
2022-10-06T13:02:21.614Z,99545.59
2022-10-06T13:05:02.560Z,99549.16
2022-10-06T13:07:31.355Z,99555.47
2022-10-06T13:10:20.038Z,99552.72
2022-10-06T13:12:47.572Z,99559.88
2022-10-06T13:15:28.093Z,99556.31
2022-10-06T13:17:58.008Z,99555.25
2022-10-06T13:20:36.906Z,99557.75
2022-10-06T13:23:23.249Z,99558.34
2022-10-06T13:25:59.594Z,99560.66
2022-10-06T13:28:34.702Z,99556.84
2022-10-06T13:31:20.762Z,99566.72
2022-10-06T13:33:53.045Z,99553.88
2022-10-06T13:36:20.136Z,99557.69
2022-10-06T13:38:47.133Z,99558.53
2022-10-06T13:41:14.036Z,99564.00
2022-10-06T13:43:43.922Z,99564.84
2022-10-06T13:46:12.821Z,99571.16
2022-10-06T13:48:51.475Z,99572.84
2022-10-06T13:51:23.264Z,99577.47
2022-10-06T13:53:50.190Z,99570.09
2022-10-06T13:56:33.127Z,99565.22
2022-10-06T13:59:20.286Z,99571.75
2022-10-06T14:01:47.490Z,99570.69
2022-10-06T14:04:18.487Z,99572.38
2022-10-06T14:06:50.182Z,99571.31
2022-10-06T14:09:20.256Z,99577.84
2022-10-06T14:11:47.202Z,99577.84
2022-10-06T14:14:15.294Z,99575.94
2022-10-06T14:16:50.276Z,99584.16
2022-10-06T14:19:39.009Z,99590.47
2022-10-06T14:22:06.157Z,99588.78
2022-10-06T14:24:37.623Z,99589.00
2022-10-06T14:27:06.002Z,99587.97
2022-10-06T14:29:34.333Z,99587.97
2022-10-06T14:32:14.863Z,99599.97
2022-10-06T14:34:42.660Z,99599.13
2022-10-06T14:37:15.540Z,99600.81
2022-10-06T14:39:43.121Z,99602.50
2022-10-06T14:42:10.273Z,99609.66
2022-10-06T14:44:38.209Z,99606.91
2022-10-06T14:47:09.479Z,99613.22
2022-10-06T14:49:38.057Z,99622.03
2022-10-06T14:52:05.775Z,99620.13
2022-10-06T14:54:34.654Z,99628.13
2022-10-06T14:57:01.647Z,99627.88
2022-10-06T14:59:28.678Z,99625.16
2022-10-06T15:01:55.696Z,99626.63
2022-10-06T15:04:27.723Z,99627.47
2022-10-06T15:07:13.093Z,99632.69
2022-10-06T15:09:40.034Z,99637.94
2022-10-06T15:12:07.058Z,99635.84
2022-10-06T15:14:39.810Z,99637.47
2022-10-06T15:17:07.145Z,99644.66
2022-10-06T15:19:34.497Z,99638.13
2022-10-06T15:22:01.512Z,99645.91
2022-10-06T15:24:28.477Z,99646.72
2022-10-06T15:27:27.693Z,99651.38
2022-10-06T15:29:54.619Z,99655.78
2022-10-06T15:32:22.703Z,99662.31
2022-10-06T15:34:51.012Z,99670.34
2022-10-06T15:37:19.402Z,99670.34
2022-10-06T15:39:46.925Z,99668.19
2022-10-06T15:42:15.756Z,99677.88
2022-10-06T15:44:42.666Z,99665.84
2022-10-06T15:47:10.277Z,99671.09
2022-10-06T15:49:40.750Z,99690.03
2022-10-06T15:52:08.352Z,99680.78
2022-10-06T15:54:40.478Z,99688.75
2022-10-06T15:57:09.095Z,99695.06
2022-10-06T15:59:36.348Z,99702.84
2022-10-06T16:02:09.906Z,99706.19
2022-10-06T16:04:38.057Z,99705.13
2022-10-06T16:07:06.495Z,99713.13
2022-10-06T16:09:43.146Z,99708.50
2022-10-06T16:12:13.384Z,99711.81
2022-10-06T16:14:40.710Z,99720.66
2022-10-06T16:17:10.348Z,99726.75
2022-10-06T16:19:38.692Z,99727.38
2022-10-06T16:22:07.511Z,99730.69
2022-10-06T16:24:35.563Z,99730.28
2022-10-06T16:27:02.577Z,99731.72
2022-10-06T16:29:32.117Z,99735.66
2022-10-06T16:32:00.272Z,99738.19
2022-10-06T16:34:30.845Z,99744.03
2022-10-06T16:36:59.598Z,99740.00
2022-10-06T16:39:28.858Z,99748.38
2022-10-06T16:41:57.901Z,99749.59
2022-10-06T16:44:27.416Z,99749.16
2022-10-06T16:46:55.376Z,99747.63
2022-10-06T16:49:24.765Z,99750.97
2022-10-06T16:51:52.475Z,99749.69
2022-10-06T16:54:21.640Z,99748.63
2022-10-06T16:56:53.101Z,99757.22
2022-10-06T16:59:22.761Z,99758.06
2022-10-06T17:01:52.019Z,99766.88
2022-10-06T17:04:24.981Z,99761.41
2022-10-06T17:06:54.831Z,99763.94
2022-10-06T17:09:24.394Z,99770.00
2022-10-06T17:11:53.973Z,99775.50
2022-10-06T17:14:22.595Z,99779.91
2022-10-06T17:16:52.376Z,99778.84
2022-10-06T17:19:21.712Z,99778.63
2022-10-06T17:21:54.166Z,99774.00
2022-10-06T17:27:53.478Z,99782.81
2022-10-06T17:30:20.410Z,99785.56
2022-10-06T17:32:48.108Z,99785.56
2022-10-06T17:35:15.153Z,99784.53
2022-10-06T17:37:42.685Z,99795.50
2022-10-06T17:40:09.650Z,99794.44
2022-10-06T17:42:37.822Z,99795.28
2022-10-06T17:45:05.361Z,99794.19
2022-10-06T17:47:32.337Z,99799.47
2022-10-06T17:50:00.698Z,99803.88
2022-10-06T17:52:27.709Z,99793.50
2022-10-06T17:54:54.820Z,99788.00
2022-10-06T17:57:21.770Z,99786.13
2022-10-06T17:59:48.742Z,99797.94
2022-10-06T18:02:15.768Z,99799.00
2022-10-06T18:04:43.411Z,99804.25
2022-10-06T18:07:10.353Z,99799.00
2022-10-06T18:10:19.233Z,99799.84
2022-10-06T18:12:48.413Z,99805.31
2022-10-06T18:15:15.685Z,99811.66
2022-10-06T18:17:42.726Z,99819.03
2022-10-06T18:20:09.797Z,99809.97
2022-10-06T18:22:36.740Z,99813.53
2022-10-06T18:25:04.648Z,99819.28
2022-10-06T18:27:33.798Z,99827.50
2022-10-06T18:30:00.744Z,99822.03
2022-10-06T18:33:47.572Z,99832.16
2022-10-06T18:38:02.478Z,99832.38
2022-10-06T18:40:29.854Z,99838.72
2022-10-06T18:42:56.982Z,99838.94
2022-10-06T18:45:42.757Z,99838.09
2022-10-06T18:48:28.206Z,99852.88
2022-10-06T18:51:02.113Z,99845.72
2022-10-06T18:53:31.263Z,99850.38
2022-10-06T18:55:58.276Z,99854.13
2022-10-06T18:58:25.213Z,99857.94
2022-10-06T19:00:52.629Z,99857.94
2022-10-06T19:03:19.798Z,99861.78
2022-10-06T19:05:53.019Z,99867.25
2022-10-06T19:08:20.231Z,99861.16
2022-10-06T19:11:07.160Z,99856.72
2022-10-06T19:13:34.124Z,99864.34
2022-10-06T19:16:02.144Z,99872.59
2022-10-06T19:18:38.305Z,99873.63
2022-10-06T19:21:09.520Z,99866.47
2022-10-06T19:23:39.035Z,99868.16
2022-10-06T19:26:06.910Z,99867.31
2022-10-06T19:28:34.270Z,99882.94
2022-10-06T19:31:03.024Z,99883.97
2022-10-06T19:33:30.905Z,99890.56
2022-10-06T19:35:59.993Z,99874.09
2022-10-06T19:38:27.457Z,99879.59
2022-10-06T19:40:54.397Z,99875.16
2022-10-06T19:43:21.406Z,99895.41
2022-10-06T19:45:57.727Z,99896.47
2022-10-06T19:48:24.773Z,99901.97
2022-10-06T19:50:52.438Z,99901.13
2022-10-06T19:53:19.484Z,99905.78
2022-10-06T19:55:47.885Z,99903.06
2022-10-06T19:58:14.806Z,99904.09
2022-10-06T20:00:42.378Z,99902.63
2022-10-06T20:03:09.306Z,99907.06
2022-10-06T20:05:38.583Z,99907.91
2022-10-06T20:08:06.286Z,99907.91
2022-10-06T20:10:34.797Z,99913.41
2022-10-06T20:13:01.847Z,99916.34
2022-10-06T20:15:28.744Z,99917.19
2022-10-06T20:17:55.764Z,99920.19
2022-10-06T20:20:22.677Z,99913.84
2022-10-06T20:22:50.061Z,99921.25
2022-10-06T20:25:17.045Z,99916.81
2022-10-06T20:27:45.591Z,99928.00
2022-10-06T20:30:13.046Z,99922.50
2022-10-06T20:32:41.072Z,99925.50
2022-10-06T20:35:08.911Z,99937.31
2022-10-06T20:37:38.527Z,99925.72
2022-10-06T20:40:24.362Z,99930.97
2022-10-06T20:42:55.008Z,99931.19
2022-10-06T20:45:21.967Z,99940.47
2022-10-06T20:47:50.853Z,99935.00
2022-10-06T20:50:18.810Z,99933.31
2022-10-06T20:52:47.200Z,99936.88
2022-10-06T20:55:14.803Z,99943.47
2022-10-06T20:57:42.740Z,99942.63
2022-10-06T21:00:10.538Z,99950.00
2022-10-06T21:02:37.563Z,99946.41
2022-10-06T21:05:04.871Z,99942.00
2022-10-06T21:07:31.854Z,99950.22
2022-10-06T21:09:58.904Z,99950.44
2022-10-06T21:12:26.003Z,99946.03
2022-10-06T21:14:52.993Z,99955.31
2022-10-06T21:17:20.111Z,99948.13
2022-10-06T21:19:47.108Z,99939.31
2022-10-06T21:22:14.085Z,99942.28
2022-10-06T21:24:41.103Z,99946.91
2022-10-06T21:27:08.119Z,99956.19
2022-10-06T21:29:35.185Z,99957.03
2022-10-06T21:32:02.160Z,99963.56
2022-10-06T21:34:29.160Z,99957.25
2022-10-06T21:36:56.396Z,99959.19
2022-10-06T21:39:23.378Z,99959.19
2022-10-06T21:41:50.395Z,99954.75
2022-10-06T21:44:18.539Z,99958.34
2022-10-06T21:46:50.130Z,99965.94
2022-10-06T21:49:18.556Z,99953.28
2022-10-06T21:51:47.253Z,99953.50
2022-10-06T21:54:14.347Z,99954.38
2022-10-06T21:56:41.356Z,99954.56
2022-10-06T21:59:09.497Z,99963.63
2022-10-06T22:01:38.102Z,99969.13
2022-10-06T22:04:05.353Z,99956.69
2022-10-06T22:06:33.177Z,99966.59
2022-10-06T22:09:00.448Z,99963.25
2022-10-06T22:11:29.073Z,99962.63
2022-10-06T22:13:58.294Z,99962.63
2022-10-06T22:16:26.399Z,99962.63
2022-10-06T22:18:53.529Z,99967.25
2022-10-06T22:21:26.250Z,99963.47
2022-10-06T22:23:55.177Z,99964.50
2022-10-06T22:26:22.236Z,99959.03
2022-10-06T22:28:49.968Z,99960.94
2022-10-06T22:31:19.939Z,99960.09
2022-10-06T22:33:53.144Z,99956.50
2022-10-06T22:36:20.198Z,99954.84
2022-10-06T22:38:47.301Z,99955.91
2022-10-06T22:41:14.575Z,99948.97
2022-10-06T22:43:41.552Z,99947.88
2022-10-06T22:46:09.155Z,99952.53
2022-10-06T22:48:36.358Z,99940.97
2022-10-06T22:51:03.411Z,99938.44
2022-10-06T22:53:31.599Z,99945.81
2022-10-06T22:55:59.463Z,99944.16
2022-10-06T22:58:26.649Z,99939.09
2022-10-06T23:00:53.827Z,99947.13
2022-10-06T23:03:21.099Z,99937.88
2022-10-06T23:05:58.720Z,99948.81
2022-10-06T23:08:26.767Z,99943.34
2022-10-06T23:10:56.046Z,99939.56
2022-10-06T23:13:23.019Z,99939.56
2022-10-06T23:15:50.120Z,99939.56
2022-10-06T23:18:17.561Z,99937.88
2022-10-06T23:20:44.554Z,99943.34
2022-10-06T23:23:11.726Z,99942.75
2022-10-06T23:25:38.865Z,99945.47
2022-10-06T23:28:05.984Z,99946.53
2022-10-06T23:30:35.339Z,99936.41
2022-10-06T23:33:03.044Z,99937.47
2022-10-06T23:35:30.015Z,99934.94
2022-10-06T23:37:57.049Z,99934.09
2022-10-06T23:40:24.046Z,99930.75
2022-10-06T23:42:51.039Z,99938.13
2022-10-06T23:45:18.076Z,99939.19
2022-10-06T23:47:45.791Z,99940.69
2022-10-06T23:50:13.009Z,99937.56
2022-10-06T23:52:40.292Z,99942.19
2022-10-06T23:55:07.794Z,99936.72
2022-10-06T23:57:34.774Z,99947.69
